CheckWX is a tool to help pilots better visualize weather data.  It is not intended as a substitute for an official pre-flight weather briefing.

15:43:59 UTC

KBGM METAR
Greater Binghamton/Edwin A Link field
Binghamton, New York, USA
Current

51 mins ago

KBGM 121453Z 27011KT 10SM SCT023 SCT028 23/18 A2977 RMK AO2 SLP071 T02330178 50005 $
Observed
Jul-12 @ 14:53 UTC
Wind
  • 270° at 11 KTS
Visibility
10 SM
Flight Rules
VFR
Cloud Levels
  • Scattered at 2,300' AGL
  • Scattered at 2,800' AGL
Temperature
23°C / 73°F
Dewpoint
18°C / 64°F
Humidity
74%
Altimeter
29.77" Hg
Pressure
1008.12 hPa
Previous

2 hours ago

KBGM 121402Z 27009KT 10SM SCT017 22/17 A2978 RMK AO2 T02220172 $
Observed
Jul-12 @ 14:02 UTC
Wind
  • 270° at 9 KTS
Visibility
10 SM
Flight Rules
VFR
Cloud Levels
  • Scattered at 1,700' AGL
Temperature
22°C / 72°F
Dewpoint
17°C / 63°F
Humidity
73%
Altimeter
29.78" Hg
Pressure
1008.42 hPa
Previous

2 hours ago

KBGM 121353Z 27006KT 10SM BKN017 22/17 A2977 RMK AO2 SLP072 T02170172 $
Observed
Jul-12 @ 13:53 UTC
Wind
  • 270° at 6 KTS
Visibility
10 SM
Flight Rules
MVFR
Cloud Levels
  • Broken at 1,700' AGL
Temperature
22°C / 72°F
Dewpoint
17°C / 63°F
Humidity
73%
Altimeter
29.77" Hg
Pressure
1008.12 hPa